Time;durP1;ratioP1;P1;durP2;ratioP2;P2;SDS_P1;SDS_P2;PMS_P1;PMS_P2;Temp;Humidity;BMP_temperature;BMP_pressure;BME280_temperature;BME280_humidity;BME280_pressure;Samples;Min_cycle;Max_cycle;Signal;HPM_P1;HPM_P2
2023/10/22 00:01:47;;;;;;;1.40;0.40;;;19.30;73.90;;;;;;5061837;28;20039;-86
2023/10/22 00:04:13;;;;;;;0.20;0.20;;;19.30;73.90;;;;;;5061605;28;20025;-84
2023/10/22 00:06:38;;;;;;;0.15;0.10;;;19.30;73.90;;;;;;5092934;28;20525;-86
2023/10/22 00:09:04;;;;;;;0.43;0.30;;;19.30;73.90;;;;;;5062119;28;20044;-86
2023/10/22 00:11:29;;;;;;;0.22;0.20;;;19.30;74.00;;;;;;5079285;28;20045;-86
2023/10/22 00:13:55;;;;;;;0.25;0.25;;;19.30;73.90;;;;;;5062905;28;20040;-86
2023/10/22 00:16:20;;;;;;;0.30;0.20;;;19.30;73.90;;;;;;5062241;28;20085;-85
2023/10/22 00:18:46;;;;;;;0.32;0.20;;;19.30;73.90;;;;;;5059861;28;20074;-86
2023/10/22 00:21:11;;;;;;;0.30;0.30;;;19.30;74.00;;;;;;5060367;28;20056;-85
2023/10/22 00:23:37;;;;;;;0.25;0.20;;;19.30;74.00;;;;;;5060868;28;20689;-86
2023/10/22 00:26:03;;;;;;;0.20;0.20;;;19.30;74.00;;;;;;5079040;28;20040;-86
2023/10/22 00:28:28;;;;;;;0.30;0.25;;;19.30;74.70;;;;;;5060743;28;20513;-86
2023/10/22 00:30:54;;;;;;;0.43;0.20;;;19.20;73.80;;;;;;5063263;28;20127;-86
2023/10/22 00:33:19;;;;;;;0.43;0.25;;;19.30;73.90;;;;;;5060700;28;20568;-85
2023/10/22 00:36:00;;;;;;;0.60;0.32;;;19.30;73.90;;;;;;5064742;28;20101;-86
2023/10/22 00:38:26;;;;;;;0.60;0.35;;;19.30;73.90;;;;;;5061643;28;20450;-85
2023/10/22 00:40:52;;;;;;;0.22;0.17;;;19.20;73.80;;;;;;5062403;28;20124;-85
2023/10/22 00:43:17;;;;;;;0.15;0.15;;;19.30;73.90;;;;;;5062817;28;20029;-85
2023/10/22 00:45:43;;;;;;;0.30;0.20;;;19.30;74.00;;;;;;5064129;28;20051;-85
2023/10/22 00:48:11;;;;;;;0.32;0.20;;;19.20;73.80;;;;;;5045148;28;20040;-85
2023/10/22 00:50:39;;;;;;;0.32;0.20;;;19.20;73.80;;;;;;5062637;28;20106;-85
2023/10/22 00:53:05;;;;;;;1.27;0.22;;;19.20;73.80;;;;;;5061109;28;21195;-85
2023/10/22 00:55:32;;;;;;;0.40;0.30;;;19.20;73.90;;;;;;5093321;28;20486;-86
2023/10/22 00:57:57;;;;;;;0.17;0.13;;;19.20;73.80;;;;;;5061642;28;20163;-86
2023/10/22 01:00:23;;;;;;;0.20;0.20;;;19.20;73.80;;;;;;5061997;28;20128;-86
2023/10/22 01:02:49;;;;;;;0.20;0.20;;;19.20;73.80;;;;;;5061942;28;20041;-86
2023/10/22 01:05:15;;;;;;;0.50;0.30;;;19.20;73.80;;;;;;5044494;28;20516;-86
2023/10/22 01:07:40;;;;;;;0.10;0.10;;;19.20;73.80;;;;;;5057213;28;20072;-86
2023/10/22 01:10:06;;;;;;;0.65;0.13;;;19.20;73.80;;;;;;5043549;28;20105;-86
2023/10/22 01:12:35;;;;;;;0.20;0.20;;;19.20;73.70;;;;;;5059170;28;20270;-86
2023/10/22 01:15:01;;;;;;;0.30;0.30;;;19.20;73.60;;;;;;5064576;28;20040;-86
2023/10/22 01:17:27;;;;;;;0.50;0.22;;;19.20;73.70;;;;;;5062750;28;20071;-87
2023/10/22 01:19:53;;;;;;;0.30;0.20;;;19.20;73.70;;;;;;5065281;28;20039;-86
2023/10/22 01:22:18;;;;;;;0.22;0.20;;;19.20;73.60;;;;;;5061664;28;20571;-85
2023/10/22 01:24:44;;;;;;;0.20;0.20;;;19.20;73.70;;;;;;5065003;28;20045;-86
2023/10/22 01:27:09;;;;;;;0.22;0.22;;;19.20;73.60;;;;;;5064946;28;20036;-85
2023/10/22 01:29:35;;;;;;;0.52;0.28;;;19.20;73.60;;;;;;5099160;28;20581;-86
2023/10/22 01:32:00;;;;;;;0.20;0.20;;;19.20;74.40;;;;;;5065008;28;20048;-86
2023/10/22 01:34:26;;;;;;;0.35;0.30;;;19.20;73.50;;;;;;5061495;28;20049;-86
2023/10/22 01:36:52;;;;;;;0.63;0.10;;;19.20;73.60;;;;;;5049788;28;20127;-86
2023/10/22 01:39:18;;;;;;;0.20;0.20;;;19.20;73.70;;;;;;5066256;28;20425;-85
2023/10/22 01:41:44;;;;;;;0.47;0.20;;;19.20;73.60;;;;;;5066671;28;20566;-86
2023/10/22 01:44:09;;;;;;;0.17;0.10;;;19.20;73.50;;;;;;5068555;28;20047;-87
2023/10/22 01:46:35;;;;;;;0.30;0.25;;;19.20;73.50;;;;;;5066969;28;20071;-86
2023/10/22 01:49:00;;;;;;;0.35;0.20;;;19.20;73.50;;;;;;5065420;28;20044;-86
2023/10/22 01:51:26;;;;;;;0.10;0.10;;;19.20;74.30;;;;;;5061659;28;20037;-86
2023/10/22 01:53:51;;;;;;;0.20;0.20;;;19.20;73.30;;;;;;5050899;28;20125;-86
2023/10/22 01:56:17;;;;;;;0.90;0.40;;;19.20;73.40;;;;;;5048244;28;20051;-87
2023/10/22 01:58:44;;;;;;;0.30;0.20;;;19.20;73.30;;;;;;5061425;28;20395;-86
2023/10/22 02:01:09;;;;;;;0.20;0.20;;;19.20;73.30;;;;;;5064743;28;20131;-86
2023/10/22 02:03:35;;;;;;;0.20;0.20;;;19.20;74.10;;;;;;5061066;28;20043;-86
2023/10/22 02:06:01;;;;;;;0.20;0.20;;;19.20;73.30;;;;;;5065723;28;20048;-85
2023/10/22 02:08:27;;;;;;;0.10;0.10;;;19.20;73.30;;;;;;5063547;28;20040;-84
2023/10/22 02:10:52;;;;;;;0.20;0.20;;;19.20;73.30;;;;;;5063890;28;20028;-85
2023/10/22 02:13:18;;;;;;;0.17;0.10;;;19.20;73.30;;;;;;5063371;28;20051;-84
2023/10/22 02:15:43;;;;;;;0.38;0.20;;;19.20;73.30;;;;;;5067222;28;20048;-85
2023/10/22 02:18:09;;;;;;;0.30;0.15;;;19.20;73.30;;;;;;5066457;28;20525;-86
2023/10/22 02:20:35;;;;;;;0.17;0.17;;;19.20;73.30;;;;;;5065013;28;20052;-85
2023/10/22 02:23:01;;;;;;;0.30;0.20;;;19.10;73.20;;;;;;5061376;28;20076;-86
2023/10/22 02:25:27;;;;;;;0.20;0.20;;;19.20;73.30;;;;;;5061645;28;20371;-85
2023/10/22 02:27:53;;;;;;;0.10;0.10;;;19.20;73.30;;;;;;5048837;28;20033;-86
2023/10/22 02:30:19;;;;;;;0.10;0.10;;;19.10;73.20;;;;;;5063967;28;20086;-87
2023/10/22 02:32:44;;;;;;;0.38;0.20;;;19.20;73.30;;;;;;5084650;28;20057;-86
2023/10/22 02:35:10;;;;;;;0.10;0.10;;;19.20;73.30;;;;;;5061698;28;20048;-86
2023/10/22 02:37:36;;;;;;;0.70;0.38;;;19.20;73.30;;;;;;5061856;28;20083;-86
2023/10/22 02:40:03;;;;;;;0.10;0.10;;;19.20;73.20;;;;;;5064515;28;20048;-87
2023/10/22 02:42:29;;;;;;;0.20;0.20;;;19.10;73.20;;;;;;5065074;28;21686;-87
2023/10/22 02:44:55;;;;;;;0.45;0.20;;;19.10;73.20;;;;;;5067486;28;20043;-86
2023/10/22 02:47:21;;;;;;;0.10;0.10;;;19.10;73.20;;;;;;5063514;28;20044;-85
2023/10/22 02:49:46;;;;;;;0.20;0.15;;;19.10;73.20;;;;;;5066719;28;20041;-86
2023/10/22 02:52:12;;;;;;;0.17;0.17;;;19.20;73.90;;;;;;5062930;28;20032;-86
2023/10/22 02:54:37;;;;;;;0.30;0.30;;;19.10;73.00;;;;;;5062265;28;20036;-86
2023/10/22 02:57:03;;;;;;;0.20;0.10;;;19.20;73.00;;;;;;5067074;28;20036;-86
2023/10/22 02:59:29;;;;;;;0.10;0.10;;;19.10;73.00;;;;;;5066159;28;20098;-86
2023/10/22 03:01:55;;;;;;;0.10;0.10;;;19.10;73.00;;;;;;5061684;28;20036;-87
2023/10/22 03:04:20;;;;;;;0.17;0.17;;;19.10;73.80;;;;;;5063017;28;20191;-86
2023/10/22 03:06:46;;;;;;;0.20;0.20;;;19.10;73.10;;;;;;5062143;28;20071;-87
2023/10/22 03:09:13;;;;;;;0.20;0.20;;;19.20;73.10;;;;;;5066314;28;20055;-86
2023/10/22 03:11:38;;;;;;;0.25;0.25;;;19.10;73.00;;;;;;5063278;28;20041;-86
2023/10/22 03:14:05;;;;;;;0.30;0.30;;;19.10;73.80;;;;;;5066046;28;20414;-86
2023/10/22 03:16:30;;;;;;;0.13;0.13;;;19.10;73.00;;;;;;5063903;28;20418;-86
2023/10/22 03:18:56;;;;;;;0.10;0.10;;;19.10;73.00;;;;;;5063878;28;20037;-86
2023/10/22 03:21:24;;;;;;;0.10;0.10;;;19.10;73.00;;;;;;5063129;28;20044;-86
2023/10/22 03:23:49;;;;;;;0.28;0.10;;;19.10;73.00;;;;;;5066105;28;20051;-86
2023/10/22 03:26:16;;;;;;;0.30;0.20;;;19.10;72.90;;;;;;5064131;28;20041;-86
2023/10/22 03:28:42;;;;;;;0.20;0.20;;;19.10;72.90;;;;;;5060860;28;20476;-85
2023/10/22 03:31:08;;;;;;;0.30;0.20;;;19.10;73.00;;;;;;5045659;28;20070;-85
2023/10/22 03:33:33;;;;;;;0.20;0.20;;;19.10;73.00;;;;;;5060067;28;20045;-86
2023/10/22 03:35:59;;;;;;;0.20;0.17;;;19.10;73.00;;;;;;5062569;28;20131;-86
2023/10/22 03:38:25;;;;;;;0.10;0.10;;;19.10;72.90;;;;;;5064086;28;20037;-86
2023/10/22 03:41:02;;;;;;;0.13;0.10;;;19.10;72.80;;;;;;5060408;28;20063;-86
2023/10/22 03:43:28;;;;;;;0.20;0.20;;;19.10;72.80;;;;;;5062507;28;20089;-86
2023/10/22 03:45:54;;;;;;;0.10;0.10;;;19.10;72.80;;;;;;5063724;28;20041;-86
2023/10/22 03:48:20;;;;;;;0.15;0.15;;;19.10;72.90;;;;;;5064599;28;20040;-86
2023/10/22 03:50:46;;;;;;;0.17;0.17;;;19.10;72.80;;;;;;5057803;28;20044;-86
2023/10/22 03:53:12;;;;;;;0.20;0.20;;;19.10;72.90;;;;;;5067454;28;20056;-86
2023/10/22 03:55:37;;;;;;;0.20;0.10;;;19.10;72.70;;;;;;5059169;28;20067;-86
2023/10/22 03:58:03;;;;;;;0.30;0.20;;;19.10;72.70;;;;;;5060789;28;20053;-85
2023/10/22 04:00:29;;;;;;;0.30;0.20;;;19.10;72.80;;;;;;5059854;28;20056;-86
2023/10/22 04:02:54;;;;;;;0.57;0.10;;;19.10;72.70;;;;;;5068345;28;20044;-86
2023/10/22 04:05:20;;;;;;;0.20;0.20;;;19.10;72.70;;;;;;5061368;28;20566;-84
2023/10/22 04:07:45;;;;;;;0.15;0.13;;;19.10;73.50;;;;;;5062974;28;20241;-85
2023/10/22 04:10:11;;;;;;;0.20;0.20;;;19.10;72.70;;;;;;5030896;28;20040;-85
2023/10/22 04:12:36;;;;;;;0.15;0.13;;;19.10;72.60;;;;;;5064628;28;20065;-86
2023/10/22 04:15:03;;;;;;;0.30;0.30;;;19.10;72.60;;;;;;5071291;28;20075;-85
2023/10/22 04:17:29;;;;;;;0.45;0.22;;;19.10;72.60;;;;;;5066436;28;20060;-85
2023/10/22 04:19:55;;;;;;;0.10;0.10;;;19.10;72.60;;;;;;5063720;28;20132;-86
2023/10/22 04:22:21;;;;;;;0.28;0.20;;;19.10;72.60;;;;;;5061787;28;20049;-79
2023/10/22 04:24:47;;;;;;;0.20;0.20;;;19.10;72.60;;;;;;5061098;28;20086;-86
2023/10/22 04:27:12;;;;;;;0.20;0.20;;;19.10;72.60;;;;;;5063694;28;20040;-86
2023/10/22 04:29:38;;;;;;;0.15;0.10;;;19.00;72.50;;;;;;5061960;28;20056;-85
2023/10/22 04:32:05;;;;;;;0.30;0.15;;;19.00;72.50;;;;;;5062512;28;20071;-86
2023/10/22 04:34:32;;;;;;;0.22;0.22;;;19.00;72.50;;;;;;5042037;28;20512;-85
2023/10/22 04:36:58;;;;;;;0.17;0.17;;;19.10;72.50;;;;;;5096640;28;20672;-86
2023/10/22 04:39:24;;;;;;;0.30;0.10;;;19.10;72.50;;;;;;5061115;28;20076;-85
2023/10/22 04:41:50;;;;;;;0.30;0.30;;;19.00;72.40;;;;;;5066628;28;20050;-86
2023/10/22 04:44:16;;;;;;;0.20;0.10;;;19.00;72.50;;;;;;5062066;28;20056;-86
2023/10/22 04:46:41;;;;;;;0.20;0.17;;;19.00;72.40;;;;;;5064487;28;20049;-86
2023/10/22 04:49:07;;;;;;;0.30;0.20;;;19.10;72.40;;;;;;5063939;28;20033;-86
2023/10/22 04:51:32;;;;;;;0.38;0.20;;;19.10;72.40;;;;;;5060033;28;20041;-85
2023/10/22 04:53:58;;;;;;;0.00;0.00;;;19.10;72.40;;;;;;5063688;28;20387;-87
2023/10/22 04:56:23;;;;;;;0.40;0.40;;;19.00;72.40;;;;;;5060303;28;20028;-85
2023/10/22 04:58:49;;;;;;;0.10;0.10;;;19.10;72.40;;;;;;5062805;28;20476;-86
2023/10/22 05:01:15;;;;;;;0.25;0.20;;;19.00;72.30;;;;;;5057819;28;20037;-86
2023/10/22 05:03:40;;;;;;;0.10;0.10;;;19.00;72.30;;;;;;5060284;28;20720;-85
2023/10/22 05:06:06;;;;;;;0.20;0.20;;;19.10;72.40;;;;;;5061702;28;20048;-85
2023/10/22 05:08:34;;;;;;;0.25;0.20;;;19.00;72.20;;;;;;5062068;28;20096;-86
2023/10/22 05:11:00;;;;;;;0.20;0.20;;;19.00;72.20;;;;;;5060809;28;20142;-85
2023/10/22 05:13:25;;;;;;;0.10;0.10;;;19.00;72.20;;;;;;5056711;28;20048;-85
2023/10/22 05:15:56;;;;;;;0.10;0.10;;;19.00;72.20;;;;;;5063396;28;20041;-86
2023/10/22 05:18:22;;;;;;;0.35;0.10;;;19.00;72.20;;;;;;5060850;28;20055;-85
2023/10/22 05:20:48;;;;;;;0.30;0.15;;;19.00;72.30;;;;;;5064698;28;20052;-86
2023/10/22 05:23:14;;;;;;;0.57;0.20;;;19.00;72.20;;;;;;5063070;28;20149;-85
2023/10/22 05:25:40;;;;;;;0.10;0.10;;;19.10;72.20;;;;;;5057854;28;20510;-85
2023/10/22 05:28:06;;;;;;;0.10;0.10;;;19.00;72.00;;;;;;5062038;28;20040;-86
2023/10/22 05:30:32;;;;;;;0.28;0.20;;;19.00;72.10;;;;;;5062545;28;20036;-85
2023/10/22 05:32:57;;;;;;;0.15;0.10;;;19.00;72.10;;;;;;5064579;28;20386;-86
2023/10/22 05:35:23;;;;;;;0.10;0.10;;;19.00;72.00;;;;;;5057171;28;20140;-86
2023/10/22 05:37:51;;;;;;;0.35;0.20;;;19.00;72.10;;;;;;5061557;28;20036;-86
2023/10/22 05:40:16;;;;;;;0.30;0.20;;;19.00;72.10;;;;;;5063409;28;20123;-86
2023/10/22 05:42:42;;;;;;;0.28;0.20;;;19.00;72.10;;;;;;5057824;28;20171;-86
2023/10/22 05:45:09;;;;;;;0.30;0.10;;;19.00;72.00;;;;;;5062063;28;20036;-86
2023/10/22 05:47:35;;;;;;;0.55;0.20;;;19.00;72.00;;;;;;5062286;28;20118;-86
2023/10/22 05:50:01;;;;;;;0.43;0.20;;;19.00;72.00;;;;;;5063462;28;20090;-86
2023/10/22 05:52:28;;;;;;;0.25;0.10;;;19.00;72.10;;;;;;5060736;28;20052;-85
2023/10/22 05:54:56;;;;;;;0.40;0.20;;;19.00;72.00;;;;;;5060909;28;20066;-86
2023/10/22 05:57:23;;;;;;;0.10;0.10;;;19.00;72.00;;;;;;5045496;28;20052;-85
2023/10/22 05:59:49;;;;;;;0.08;0.08;;;19.00;71.90;;;;;;5062407;28;20474;-85
2023/10/22 06:02:14;;;;;;;0.17;0.10;;;19.00;71.80;;;;;;5042921;28;20037;-85
2023/10/22 06:04:40;;;;;;;0.40;0.20;;;19.00;71.80;;;;;;5089504;28;20056;-85
2023/10/22 06:07:07;;;;;;;0.13;0.13;;;19.00;71.70;;;;;;5062935;28;20048;-85
2023/10/22 06:09:34;;;;;;;0.20;0.20;;;19.00;71.80;;;;;;5063940;28;20417;-85
2023/10/22 06:12:00;;;;;;;0.25;0.20;;;19.00;71.80;;;;;;5067373;28;20044;-86
2023/10/22 06:14:26;;;;;;;1.30;0.15;;;19.00;71.80;;;;;;5067751;28;20048;-86
2023/10/22 06:16:51;;;;;;;0.10;0.10;;;19.00;71.70;;;;;;5064180;28;20040;-84
2023/10/22 06:19:17;;;;;;;0.30;0.20;;;19.00;71.70;;;;;;5060602;28;20059;-85
2023/10/22 06:21:43;;;;;;;0.20;0.10;;;19.00;71.70;;;;;;5081891;28;20387;-83
2023/10/22 06:24:09;;;;;;;0.20;0.20;;;19.00;71.70;;;;;;5088260;28;20041;-85
2023/10/22 06:26:34;;;;;;;0.25;0.20;;;19.00;71.70;;;;;;5066102;28;20529;-85
2023/10/22 06:29:00;;;;;;;0.20;0.20;;;19.00;71.70;;;;;;5063944;28;20048;-85
2023/10/22 06:31:26;;;;;;;0.63;0.30;;;19.00;71.70;;;;;;5047450;28;20048;-84
2023/10/22 06:33:51;;;;;;;0.25;0.10;;;19.00;71.70;;;;;;5061360;28;20131;-85
2023/10/22 06:36:21;;;;;;;0.30;0.20;;;19.00;71.70;;;;;;5064199;28;20409;-82
2023/10/22 06:38:47;;;;;;;0.20;0.10;;;19.00;72.50;;;;;;5064311;28;20052;-86
2023/10/22 06:41:22;;;;;;;0.20;0.20;;;19.00;71.70;;;;;;5063881;28;20521;-81
2023/10/22 06:43:48;;;;;;;0.20;0.20;;;19.00;71.90;;;;;;5063952;28;21514;-87
2023/10/22 06:46:14;;;;;;;0.30;0.20;;;19.00;71.70;;;;;;5046048;28;20061;-81
2023/10/22 06:48:40;;;;;;;0.20;0.20;;;19.00;71.90;;;;;;5096773;28;20040;-82
2023/10/22 06:51:12;;;;;;;0.20;0.20;;;19.00;71.90;;;;;;5067259;28;20032;-81
2023/10/22 06:53:38;;;;;;;0.30;0.20;;;19.00;71.80;;;;;;5067038;28;20040;-82
2023/10/22 06:56:04;;;;;;;0.35;0.20;;;19.00;71.90;;;;;;5061161;28;20498;-82
2023/10/22 06:58:30;;;;;;;0.30;0.20;;;19.00;71.70;;;;;;5063547;28;20044;-80
2023/10/22 07:01:06;;;;;;;0.35;0.35;;;19.00;71.70;;;;;;5060774;28;20041;-81
2023/10/22 07:03:33;;;;;;;0.40;0.30;;;19.00;71.80;;;;;;5062012;28;20032;-80
2023/10/22 07:05:59;;;;;;;0.20;0.20;;;19.00;71.70;;;;;;5065795;28;20047;-81
2023/10/22 07:08:25;;;;;;;0.28;0.25;;;19.00;71.80;;;;;;5062339;28;20052;-81
2023/10/22 07:10:51;;;;;;;0.60;0.22;;;19.00;71.80;;;;;;5060879;28;20048;-80
2023/10/22 07:13:18;;;;;;;0.40;0.25;;;19.00;71.70;;;;;;5061690;28;20056;-80
2023/10/22 07:15:43;;;;;;;0.20;0.20;;;19.00;71.70;;;;;;5067400;28;20036;-80
2023/10/22 07:18:09;;;;;;;0.30;0.30;;;19.00;71.90;;;;;;5063827;28;20040;-81
2023/10/22 07:20:34;;;;;;;0.40;0.30;;;19.00;71.80;;;;;;5066251;28;20525;-81
2023/10/22 07:23:01;;;;;;;0.25;0.20;;;19.00;71.70;;;;;;5064372;28;20040;-80
2023/10/22 07:25:27;;;;;;;0.22;0.20;;;19.00;71.70;;;;;;5063312;28;20059;-80
2023/10/22 07:27:53;;;;;;;0.25;0.20;;;19.00;71.70;;;;;;5064487;28;20037;-81
2023/10/22 07:30:18;;;;;;;0.20;0.20;;;19.00;71.80;;;;;;5062308;28;20085;-79
2023/10/22 07:32:44;;;;;;;1.50;0.20;;;19.00;71.90;;;;;;5065712;28;20033;-80
2023/10/22 07:35:09;;;;;;;0.47;0.40;;;19.00;71.50;;;;;;5061196;28;20512;-80
2023/10/22 07:37:37;;;;;;;0.40;0.20;;;19.00;72.20;;;;;;5061619;28;20040;-80
2023/10/22 07:40:03;;;;;;;0.77;0.30;;;19.10;71.80;;;;;;5062122;28;20458;-81
2023/10/22 07:42:28;;;;;;;0.47;0.30;;;19.10;72.20;;;;;;5063828;28;20139;-83
2023/10/22 07:44:54;;;;;;;0.95;0.60;;;19.10;72.10;;;;;;5065583;28;20049;-84
2023/10/22 07:47:19;;;;;;;2.58;0.60;;;19.10;72.30;;;;;;5063666;28;20117;-83
2023/10/22 07:49:45;;;;;;;2.50;0.25;;;19.10;72.60;;;;;;5065621;28;20072;-86
2023/10/22 07:52:10;;;;;;;1.98;0.50;;;19.10;72.60;;;;;;5060118;28;20119;-85
2023/10/22 07:54:36;;;;;;;0.85;0.30;;;19.20;72.80;;;;;;5059136;28;20048;-83
2023/10/22 07:57:02;;;;;;;2.58;0.30;;;19.10;72.80;;;;;;5056529;28;20121;-84
2023/10/22 07:59:27;;;;;;;0.38;0.38;;;19.10;73.00;;;;;;5057466;28;20041;-87
2023/10/22 08:01:53;;;;;;;0.60;0.35;;;19.10;73.20;;;;;;5060073;28;20129;-87
2023/10/22 08:04:18;;;;;;;2.00;0.73;;;19.10;72.70;;;;;;5060140;28;20036;-84
2023/10/22 08:06:44;;;;;;;0.35;0.30;;;19.10;72.00;;;;;;5057658;28;20139;-79
2023/10/22 08:09:09;;;;;;;0.73;0.35;;;19.10;72.20;;;;;;5060552;28;20526;-81
2023/10/22 08:11:35;;;;;;;1.02;0.60;;;19.10;72.00;;;;;;5058332;28;20041;-81
2023/10/22 08:14:00;;;;;;;0.47;0.30;;;19.10;71.80;;;;;;5059105;28;20490;-82
2023/10/22 08:16:26;;;;;;;0.90;0.52;;;19.10;71.60;;;;;;5057488;28;20063;-83
2023/10/22 08:18:52;;;;;;;0.88;0.30;;;19.10;71.20;;;;;;5058802;28;20040;-80
2023/10/22 08:21:17;;;;;;;0.93;0.50;;;19.10;71.20;;;;;;5059251;28;20059;-80
2023/10/22 08:23:43;;;;;;;0.55;0.30;;;19.10;71.20;;;;;;5061110;28;20072;-85
2023/10/22 08:26:09;;;;;;;1.05;0.60;;;19.10;71.00;;;;;;5058637;28;20503;-81
2023/10/22 08:28:35;;;;;;;1.48;0.80;;;19.20;71.10;;;;;;5056966;28;20471;-81
2023/10/22 08:31:00;;;;;;;1.02;0.40;;;19.20;71.30;;;;;;5057504;28;20045;-81
2023/10/22 08:33:26;;;;;;;2.20;0.98;;;19.10;71.30;;;;;;5056804;28;20086;-81
2023/10/22 08:35:52;;;;;;;0.88;0.60;;;19.10;71.00;;;;;;5060725;28;20079;-81
2023/10/22 08:38:17;;;;;;;1.60;0.90;;;19.10;70.60;;;;;;5059779;28;20044;-81
2023/10/22 08:40:43;;;;;;;0.93;0.47;;;19.10;70.60;;;;;;5058080;28;20049;-81
2023/10/22 08:43:16;;;;;;;4.00;1.25;;;19.10;70.60;;;;;;5060011;28;20569;-81
2023/10/22 08:45:45;;;;;;;0.82;0.57;;;19.10;70.50;;;;;;5057763;28;20627;-80
2023/10/22 08:48:11;;;;;;;0.70;0.60;;;19.10;70.60;;;;;;5061036;28;20082;-81
2023/10/22 08:50:37;;;;;;;2.28;0.50;;;19.10;70.50;;;;;;5060415;28;20190;-80
2023/10/22 08:53:03;;;;;;;1.00;0.50;;;19.10;70.40;;;;;;5057964;28;20048;-81
2023/10/22 08:55:29;;;;;;;0.98;0.55;;;19.10;70.50;;;;;;5057510;28;20039;-80
2023/10/22 08:57:55;;;;;;;1.42;0.73;;;19.10;70.80;;;;;;5057985;28;20048;-81
2023/10/22 09:00:20;;;;;;;1.33;0.43;;;19.10;70.10;;;;;;5060507;28;20081;-81
2023/10/22 09:02:46;;;;;;;0.82;0.65;;;19.10;70.00;;;;;;5077656;28;20040;-80
2023/10/22 09:05:12;;;;;;;1.95;0.60;;;19.10;70.00;;;;;;5060072;28;20091;-80
2023/10/22 09:08:06;;;;;;;0.90;0.47;;;19.20;69.90;;;;;;5042266;28;20045;-77
2023/10/22 09:10:32;;;;;;;3.10;0.90;;;19.10;70.00;;;;;;5033927;28;20048;-81
2023/10/22 09:13:07;;;;;;;1.80;0.70;;;19.20;69.90;;;;;;5057925;28;20044;-81
2023/10/22 09:15:43;;;;;;;0.90;0.70;;;19.20;69.90;;;;;;5060957;28;20029;-81
2023/10/22 09:18:08;;;;;;;0.70;0.52;;;19.20;70.00;;;;;;5060277;28;20070;-82
2023/10/22 09:20:34;;;;;;;1.05;0.60;;;19.20;69.80;;;;;;5060250;28;20037;-81
2023/10/22 09:23:18;;;;;;;1.10;0.57;;;19.20;69.70;;;;;;5059384;28;20142;-82
2023/10/22 09:25:51;;;;;;;0.85;0.65;;;19.20;70.00;;;;;;5056756;28;20037;-80
2023/10/22 09:28:20;;;;;;;1.45;0.55;;;19.30;69.80;;;;;;5088253;28;20049;-82
2023/10/22 09:30:47;;;;;;;1.52;0.90;;;19.30;69.80;;;;;;5055367;28;20043;-81
2023/10/22 09:33:14;;;;;;;1.42;0.75;;;19.30;70.10;;;;;;5058530;28;20044;-81
2023/10/22 09:35:40;;;;;;;1.08;0.85;;;19.30;69.80;;;;;;5059951;28;20040;-81
2023/10/22 09:38:06;;;;;;;2.08;0.70;;;19.30;70.00;;;;;;5060377;28;20050;-81
2023/10/22 09:40:34;;;;;;;0.82;0.45;;;19.30;69.70;;;;;;5056646;28;20033;-81
2023/10/22 09:43:01;;;;;;;0.90;0.50;;;19.30;69.90;;;;;;5058794;28;20533;-81
2023/10/22 09:45:27;;;;;;;0.80;0.55;;;19.30;70.20;;;;;;5060008;28;20708;-81
2023/10/22 09:47:55;;;;;;;2.20;0.82;;;19.30;70.20;;;;;;5059996;28;20045;-81
2023/10/22 09:50:20;;;;;;;1.52;0.90;;;19.40;70.50;;;;;;5063438;28;20047;-82
2023/10/22 09:52:46;;;;;;;1.70;0.85;;;19.40;70.10;;;;;;5076380;28;20040;-81
2023/10/22 09:55:14;;;;;;;0.88;0.60;;;19.40;70.60;;;;;;5064523;28;20045;-82
2023/10/22 09:57:40;;;;;;;1.05;0.60;;;19.40;70.50;;;;;;5065375;28;20052;-80
2023/10/22 10:00:12;;;;;;;1.83;0.63;;;19.40;70.40;;;;;;5064165;28;20175;-79
2023/10/22 10:02:39;;;;;;;2.72;0.65;;;19.40;71.40;;;;;;5063057;28;20529;-81
2023/10/22 10:05:11;;;;;;;2.75;1.00;;;19.50;72.00;;;;;;5060401;28;20037;-83
2023/10/22 10:07:40;;;;;;;2.13;0.75;;;19.50;72.00;;;;;;5047764;28;20044;-86
2023/10/22 10:10:07;;;;;;;1.42;0.90;;;19.50;72.80;;;;;;5047527;28;20147;-86
2023/10/22 10:12:36;;;;;;;1.85;0.85;;;19.50;72.40;;;;;;5075237;28;20480;-81
2023/10/22 10:15:02;;;;;;;2.08;0.82;;;19.50;72.30;;;;;;5045356;28;20051;-84
2023/10/22 10:17:28;;;;;;;1.02;0.73;;;19.50;72.20;;;;;;5054450;28;20040;-84
2023/10/22 10:20:26;;;;;;;2.20;0.60;;;19.50;72.00;;;;;;5041082;28;20056;-84
2023/10/22 10:23:08;;;;;;;2.75;0.60;;;19.60;72.30;;;;;;5059860;28;20582;-79
2023/10/22 10:25:34;;;;;;;1.80;0.73;;;19.60;69.50;;;;;;5062699;28;20044;-83
2023/10/22 10:28:10;;;;;;;1.38;1.15;;;19.50;72.30;;;;;;5058582;28;20040;-82
2023/10/22 10:30:35;;;;;;;3.60;1.20;;;19.50;75.80;;;;;;5073454;28;20051;-84
2023/10/22 10:33:01;;;;;;;3.28;1.58;;;19.60;76.40;;;;;;5060758;28;20036;-88
2023/10/22 10:35:27;;;;;;;2.55;1.60;;;19.60;75.80;;;;;;5063941;28;20057;-87
2023/10/22 10:38:15;;;;;;;3.40;1.88;;;19.70;77.90;;;;;;5060821;28;20056;-87
2023/10/22 10:40:41;;;;;;;3.72;1.40;;;19.80;77.50;;;;;;5060573;28;20420;-84
2023/10/22 10:43:07;;;;;;;3.08;1.65;;;19.80;77.20;;;;;;5056137;28;20045;-84
2023/10/22 10:45:33;;;;;;;2.58;1.73;;;19.80;77.40;;;;;;5076487;28;20864;-84
2023/10/22 10:47:58;;;;;;;9.18;6.07;;;19.80;78.60;;;;;;5061576;28;20053;-84
2023/10/22 10:50:24;;;;;;;69.78;18.48;;;19.90;77.90;;;;;;5062140;28;20598;-87
2023/10/22 10:52:49;;;;;;;149.57;42.90;;;19.90;77.30;;;;;;5058272;28;20049;-85
2023/10/22 10:55:15;;;;;;;235.90;69.18;;;19.90;76.80;;;;;;4714872;28;10001020;-84
2023/10/22 10:57:45;;;;;;;396.73;143.23;;;19.90;76.60;;;;;;5063435;28;20249;-83
2023/10/22 11:00:21;;;;;;;337.98;121.30;;;20.10;78.60;;;;;;5064103;28;20048;-83
2023/10/22 11:02:51;;;;;;;218.95;79.55;;;20.20;78.90;;;;;;5064896;28;20048;-82
2023/10/22 11:05:28;;;;;;;181.57;60.58;;;20.20;76.90;;;;;;5065410;28;20060;-88
2023/10/22 11:07:54;;;;;;;114.32;41.33;;;20.20;76.20;;;;;;5065131;28;20051;-85
2023/10/22 11:10:20;;;;;;;48.53;15.50;;;20.20;71.30;;;;;;5063402;28;20028;-86
2023/10/22 11:12:46;;;;;;;26.15;9.60;;;19.90;68.70;;;;;;5060925;28;20039;-85
2023/10/22 11:15:12;;;;;;;21.02;8.50;;;19.80;68.00;;;;;;4710421;28;10000219;-86
2023/10/22 11:17:41;;;;;;;14.20;5.18;;;19.70;68.40;;;;;;5061898;28;20056;-79
2023/10/22 11:20:08;;;;;;;16.23;6.03;;;19.60;67.60;;;;;;5043112;28;20780;-84
2023/10/22 11:22:35;;;;;;;23.23;8.57;;;19.60;69.60;;;;;;5058762;28;20611;-80
2023/10/22 11:25:01;;;;;;;25.15;8.73;;;19.70;69.60;;;;;;5057506;28;20049;-78
2023/10/22 11:27:27;;;;;;;34.47;9.65;;;19.80;70.60;;;;;;5077954;28;20106;-82
2023/10/22 11:29:53;;;;;;;23.35;9.10;;;19.90;70.80;;;;;;5074764;28;20680;-79
2023/10/22 11:32:19;;;;;;;25.58;9.55;;;19.90;70.70;;;;;;5058399;28;20353;-78
2023/10/22 11:34:52;;;;;;;22.60;9.05;;;19.90;70.90;;;;;;5059573;28;20052;-78
2023/10/22 11:37:19;;;;;;;29.38;11.07;;;20.00;70.90;;;;;;5028143;28;20068;-78
2023/10/22 11:39:45;;;;;;;28.65;11.13;;;20.00;71.20;;;;;;5090256;28;20048;-78
2023/10/22 11:42:11;;;;;;;29.63;10.82;;;20.00;71.20;;;;;;5059907;28;20090;-79
2023/10/22 11:44:37;;;;;;;29.17;11.48;;;20.00;71.20;;;;;;5059970;28;20117;-78
2023/10/22 11:47:24;;;;;;;39.58;12.77;;;20.00;71.00;;;;;;5056885;28;20455;-78
2023/10/22 11:49:54;;;;;;;25.27;10.48;;;20.00;71.20;;;;;;5057667;28;20463;-79
2023/10/22 11:52:36;;;;;;;27.13;9.85;;;20.00;71.30;;;;;;5061110;28;20067;-78
2023/10/22 11:55:02;;;;;;;25.85;9.50;;;20.00;71.30;;;;;;5062260;28;20051;-78
2023/10/22 11:57:28;;;;;;;30.17;9.77;;;20.00;71.40;;;;;;5063203;28;20036;-78
2023/10/22 11:59:54;;;;;;;26.65;10.13;;;20.00;71.60;;;;;;5064055;28;20102;-78
2023/10/22 12:02:19;;;;;;;28.23;9.73;;;20.00;71.50;;;;;;5062541;28;20039;-78
2023/10/22 12:04:47;;;;;;;21.10;8.77;;;20.00;71.50;;;;;;5064428;28;20039;-80
2023/10/22 12:07:12;;;;;;;25.02;9.75;;;20.00;71.60;;;;;;5063092;28;20045;-80
2023/10/22 12:09:39;;;;;;;26.25;9.32;;;20.00;71.80;;;;;;5063309;28;20541;-80
2023/10/22 12:12:05;;;;;;;22.17;8.73;;;20.00;71.70;;;;;;5061915;28;20045;-79
2023/10/22 12:14:31;;;;;;;21.95;8.98;;;20.00;71.80;;;;;;5062171;28;20036;-79
2023/10/22 12:16:57;;;;;;;18.70;8.25;;;20.00;71.90;;;;;;5057399;28;20032;-79
2023/10/22 12:19:23;;;;;;;21.67;8.57;;;20.00;72.10;;;;;;5069100;28;20052;-82
2023/10/22 12:21:48;;;;;;;22.23;9.25;;;20.00;72.50;;;;;;4714489;28;10000683;-82
2023/10/22 12:24:14;;;;;;;22.35;8.63;;;20.00;72.60;;;;;;5056313;28;20836;-76
2023/10/22 12:26:40;;;;;;;24.63;9.32;;;20.10;72.60;;;;;;5084356;28;20048;-79
2023/10/22 12:29:05;;;;;;;24.15;8.45;;;20.20;72.80;;;;;;5058035;28;20043;-81
2023/10/22 12:31:31;;;;;;;20.17;7.78;;;20.20;73.00;;;;;;5057921;28;20033;-86
2023/10/22 12:33:57;;;;;;;16.13;7.15;;;20.20;73.40;;;;;;5088888;28;20037;-84
2023/10/22 12:36:22;;;;;;;14.43;6.97;;;20.20;73.50;;;;;;5054594;28;20033;-82
2023/10/22 12:38:48;;;;;;;19.75;7.75;;;20.20;73.80;;;;;;5060686;28;20112;-80
2023/10/22 12:41:13;;;;;;;16.73;6.93;;;20.20;72.70;;;;;;5044871;28;20044;-78